Time;durP1;ratioP1;P1;durP2;ratioP2;P2;SDS_P1;SDS_P2;PMS_P1;PMS_P2;Temp;Humidity;BMP_temperature;BMP_pressure;BME280_temperature;BME280_humidity;BME280_pressure;Samples;Min_cycle;Max_cycle;Signal;HPM_P1;HPM_P2
2022/02/22 00:04:43;;;;;;;2.55;0.88;;;22.40;53.00;;;;;;21309648;27;20505;-49
2022/02/22 00:14:45;;;;;;;1.57;0.70;;;23.40;51.50;;;;;;21290524;27;20077;-48
2022/02/22 00:24:46;;;;;;;2.08;0.75;;;23.90;50.50;;;;;;21310176;27;20441;-49
2022/02/22 00:34:49;;;;;;;2.17;0.60;;;24.10;49.50;;;;;;21296620;27;20432;-48
2022/02/22 00:44:51;;;;;;;1.05;0.35;;;23.90;49.20;;;;;;21238543;27;20170;-48
2022/02/22 00:54:52;;;;;;;0.98;0.50;;;23.20;49.70;;;;;;21283354;27;20066;-48
2022/02/22 01:04:54;;;;;;;0.88;0.57;;;22.70;49.90;;;;;;21301484;27;20521;-48
2022/02/22 01:14:56;;;;;;;1.48;0.57;;;22.30;50.30;;;;;;21278028;27;20051;-47
2022/02/22 01:24:57;;;;;;;1.55;0.50;;;21.80;50.60;;;;;;21283220;27;20052;-52
2022/02/22 01:35:00;;;;;;;1.50;0.52;;;21.40;51.00;;;;;;21280197;27;20486;-53
2022/02/22 01:45:03;;;;;;;1.73;0.68;;;21.00;50.90;;;;;;21273259;27;20398;-53
2022/02/22 01:55:06;;;;;;;2.03;0.47;;;20.60;51.90;;;;;;21252725;27;20043;-53
2022/02/22 02:05:08;;;;;;;1.40;0.47;;;20.30;52.70;;;;;;21285957;27;20055;-52
2022/02/22 02:15:12;;;;;;;1.40;0.80;;;20.10;53.30;;;;;;21263721;27;20541;-52
2022/02/22 02:25:15;;;;;;;1.25;0.60;;;19.90;53.80;;;;;;21287982;27;20082;-52
2022/02/22 02:35:18;;;;;;;0.95;0.35;;;19.70;54.30;;;;;;21302792;27;20137;-52
2022/02/22 02:45:22;;;;;;;1.95;0.60;;;19.60;54.60;;;;;;21385400;27;20046;-51
2022/02/22 02:55:29;;;;;;;1.52;0.60;;;19.50;54.80;;;;;;21351966;27;20054;-52
2022/02/22 03:05:33;;;;;;;0.80;0.38;;;19.40;55.10;;;;;;21368563;27;20050;-52
2022/02/22 03:15:35;;;;;;;1.08;0.40;;;19.30;54.90;;;;;;21304693;27;20507;-52
2022/02/22 03:25:38;;;;;;;0.93;0.45;;;19.40;55.60;;;;;;21375080;27;20189;-52
2022/02/22 03:35:41;;;;;;;0.80;0.47;;;20.70;54.50;;;;;;21367005;27;20071;-52
2022/02/22 03:45:44;;;;;;;1.27;0.43;;;22.10;53.10;;;;;;21335531;27;20533;-51
2022/02/22 03:55:46;;;;;;;2.60;0.30;;;23.20;51.70;;;;;;21341227;27;20183;-51
2022/02/22 04:05:49;;;;;;;1.00;0.30;;;23.80;50.20;;;;;;21377153;27;20038;-52
2022/02/22 04:15:51;;;;;;;0.65;0.25;;;24.00;49.20;;;;;;21328825;27;20046;-52
2022/02/22 04:25:53;;;;;;;2.05;0.43;;;23.50;49.40;;;;;;21333894;27;20050;-52
2022/02/22 04:35:57;;;;;;;0.80;0.30;;;22.90;49.40;;;;;;21356008;27;20060;-48
2022/02/22 04:46:00;;;;;;;0.68;0.32;;;22.50;49.60;;;;;;21301473;27;20412;-51
2022/02/22 04:56:02;;;;;;;0.60;0.22;;;21.80;50.30;;;;;;21384422;27;20054;-52
2022/02/22 05:06:05;;;;;;;1.02;0.32;;;21.30;50.70;;;;;;21347559;27;20046;-53
2022/02/22 05:16:07;;;;;;;0.45;0.28;;;20.90;50.90;;;;;;21299795;27;20043;-50
2022/02/22 05:26:11;;;;;;;1.63;0.40;;;20.50;51.30;;;;;;21330934;27;20159;-52
2022/02/22 05:36:13;;;;;;;4.75;0.73;;;20.30;51.70;;;;;;21306567;27;20410;-53
2022/02/22 05:46:15;;;;;;;9.98;2.30;;;20.10;52.20;;;;;;21333785;27;20047;-52
2022/02/22 05:56:19;;;;;;;5.30;1.65;;;19.80;53.00;;;;;;21306885;27;20055;-52
2022/02/22 06:06:20;;;;;;;6.05;1.60;;;19.60;53.60;;;;;;21249344;27;20065;-47
2022/02/22 06:16:23;;;;;;;6.80;1.80;;;19.40;54.00;;;;;;21278488;27;20462;-47
2022/02/22 06:26:25;;;;;;;7.43;1.05;;;19.30;54.30;;;;;;21312609;27;20054;-48
2022/02/22 06:36:27;;;;;;;7.22;1.45;;;19.10;54.60;;;;;;21321877;27;20409;-47
2022/02/22 06:46:29;;;;;;;4.90;1.17;;;19.00;54.90;;;;;;21230843;27;20544;-48
2022/02/22 06:56:30;;;;;;;3.63;0.73;;;18.90;55.30;;;;;;21253923;27;20054;-48
2022/02/22 07:06:33;;;;;;;4.63;1.00;;;19.60;55.50;;;;;;21292563;27;20047;-50
2022/02/22 07:16:35;;;;;;;3.08;0.95;;;21.20;54.20;;;;;;21306059;27;20047;-49
2022/02/22 07:26:37;;;;;;;2.53;0.98;;;22.60;52.50;;;;;;21321053;27;20078;-49
2022/02/22 07:36:39;;;;;;;2.55;1.20;;;23.50;50.90;;;;;;21266654;27;20139;-49
2022/02/22 07:46:41;;;;;;;6.82;1.83;;;23.90;49.70;;;;;;21241678;27;20047;-48
2022/02/22 07:56:43;;;;;;;10.50;2.90;;;23.40;49.80;;;;;;21298047;27;20397;-49
2022/02/22 08:06:45;;;;;;;9.45;2.38;;;23.00;49.70;;;;;;21314694;27;20049;-49
2022/02/22 08:16:47;;;;;;;9.32;2.25;;;22.30;49.70;;;;;;21318949;27;20110;-52
2022/02/22 08:26:57;;;;;;;10.75;2.28;;;21.60;50.60;;;;;;21318560;27;20051;-51
2022/02/22 08:36:59;;;;;;;11.45;2.22;;;21.00;51.60;;;;;;21253506;27;20058;-51
2022/02/22 08:47:01;;;;;;;7.78;1.30;;;20.70;52.30;;;;;;21288078;27;20043;-50
2022/02/22 08:57:03;;;;;;;6.28;1.90;;;20.30;53.00;;;;;;21250309;27;20047;-53
2022/02/22 09:07:05;;;;;;;7.95;1.90;;;20.20;53.50;;;;;;21237238;28;20044;-51
2022/02/22 09:17:07;;;;;;;8.88;2.53;;;20.00;54.00;;;;;;21250910;27;20626;-50
2022/02/22 09:27:08;;;;;;;5.38;1.67;;;19.90;54.20;;;;;;21286304;27;20115;-52
2022/02/22 09:37:11;;;;;;;5.47;1.40;;;19.90;54.30;;;;;;21268393;27;20066;-52
2022/02/22 09:47:13;;;;;;;8.98;1.70;;;19.80;54.60;;;;;;21250244;27;20474;-51
2022/02/22 09:57:15;;;;;;;5.95;1.67;;;19.80;54.90;;;;;;21249968;27;20054;-52
2022/02/22 10:07:17;;;;;;;6.43;1.88;;;19.80;54.90;;;;;;21248334;27;20039;-52
2022/02/22 10:17:19;;;;;;;4.43;1.33;;;19.70;55.10;;;;;;21272536;27;20382;-52
2022/02/22 10:27:22;;;;;;;5.65;1.17;;;19.70;55.20;;;;;;21333028;27;20403;-51
2022/02/22 10:37:33;;;;;;;3.63;1.23;;;19.70;55.60;;;;;;21275723;27;20054;-52
2022/02/22 10:47:40;;;;;;;2.33;0.95;;;19.70;55.90;;;;;;21327350;27;20484;-53
2022/02/22 10:57:42;;;;;;;4.10;1.40;;;19.80;56.20;;;;;;21278857;27;20058;-54
2022/02/22 11:07:50;;;;;;;2.80;1.30;;;19.80;56.30;;;;;;21227057;27;20142;-51
2022/02/22 11:17:54;;;;;;;3.00;1.13;;;19.90;56.40;;;;;;21272232;27;20058;-52
2022/02/22 11:28:07;;;;;;;2.53;1.05;;;20.00;56.20;;;;;;21328368;27;20050;-54
2022/02/22 11:38:11;;;;;;;3.80;1.27;;;20.10;56.20;;;;;;21330381;27;20069;-53
2022/02/22 11:48:14;;;;;;;3.53;1.38;;;20.10;56.00;;;;;;21327934;27;20047;-53
2022/02/22 11:58:22;;;;;;;3.90;1.20;;;20.20;55.80;;;;;;21308143;27;20058;-55
2022/02/22 12:08:28;;;;;;;;;;;20.30;55.60;;;;;;21320712;27;20042;-54
2022/02/22 12:18:30;;;;;;;2.40;1.02;;;20.30;56.00;;;;;;21325691;27;19919;-52
2022/02/22 12:28:53;;;;;;;2.47;0.82;;;20.40;55.60;;;;;;21285431;27;20104;-53
2022/02/22 12:39:00;;;;;;;2.92;1.05;;;20.50;55.60;;;;;;21325726;27;20082;-52
2022/02/22 12:49:06;;;;;;;2.70;1.00;;;20.60;55.30;;;;;;21259021;27;20474;-54
2022/02/22 12:59:29;;;;;;;1.35;0.60;;;20.70;55.20;;;;;;21327471;27;20046;-53
2022/02/22 13:09:30;;;;;;;2.58;1.00;;;20.80;55.00;;;;;;21289903;27;20073;-51
2022/02/22 13:19:34;;;;;;;2.85;0.93;;;20.90;54.90;;;;;;21296306;27;20058;-54
2022/02/22 13:29:35;;;;;;;2.72;1.10;;;21.00;54.80;;;;;;21292987;27;20051;-52
2022/02/22 13:39:38;;;;;;;4.18;1.05;;;21.00;54.60;;;;;;21337807;27;20061;-52
2022/02/22 13:49:45;;;;;;;1.83;0.57;;;21.10;54.40;;;;;;21263412;27;20501;-52
2022/02/22 13:59:50;;;;;;;1.53;0.70;;;21.10;54.30;;;;;;21188545;27;20086;-51
2022/02/22 14:09:52;;;;;;;2.60;0.80;;;21.20;54.20;;;;;;20818759;28;20081;-51
2022/02/22 14:19:55;;;;;;;2.05;0.57;;;21.20;54.10;;;;;;20836593;28;20142;-51
2022/02/22 14:29:57;;;;;;;2.17;0.70;;;21.20;54.20;;;;;;20828616;28;20053;-52
2022/02/22 14:39:59;;;;;;;1.80;0.93;;;21.10;54.20;;;;;;20901069;27;20556;-50
2022/02/22 14:50:01;;;;;;;3.53;0.82;;;21.20;54.00;;;;;;20972907;27;20044;-49
2022/02/22 15:00:03;;;;;;;1.63;0.80;;;21.30;53.60;;;;;;20918401;27;20059;-49
2022/02/22 15:10:06;;;;;;;2.35;0.80;;;21.60;52.90;;;;;;20901349;27;20543;-50
2022/02/22 15:20:08;;;;;;;1.80;0.93;;;21.90;52.40;;;;;;20924028;27;20056;-50
2022/02/22 15:30:10;;;;;;;2.05;0.63;;;21.90;52.10;;;;;;20907694;27;20045;-51
2022/02/22 15:40:14;;;;;;;2.95;0.90;;;21.90;52.20;;;;;;20897340;28;20415;-49
2022/02/22 15:50:16;;;;;;;2.42;0.73;;;21.80;52.20;;;;;;20923156;27;20072;-49
2022/02/22 16:00:17;;;;;;;2.85;0.65;;;21.70;52.40;;;;;;21023281;27;20129;-55
2022/02/22 16:10:23;;;;;;;2.63;0.70;;;21.70;52.30;;;;;;21248336;27;20118;-51
2022/02/22 16:20:26;;;;;;;2.60;1.00;;;21.60;52.40;;;;;;21270978;27;20134;-53
2022/02/22 16:30:29;;;;;;;1.42;0.40;;;21.40;52.60;;;;;;21305734;27;20080;-53
2022/02/22 16:40:32;;;;;;;1.77;0.70;;;21.40;52.80;;;;;;21264975;27;20474;-51
2022/02/22 16:50:34;;;;;;;1.15;0.52;;;21.20;52.90;;;;;;21308353;27;20054;-51
2022/02/22 17:00:36;;;;;;;0.82;0.50;;;21.20;53.00;;;;;;21228316;27;20140;-52
2022/02/22 17:10:37;;;;;;;1.13;0.50;;;21.10;53.10;;;;;;20819145;27;20041;-51
2022/02/22 17:20:39;;;;;;;1.20;0.50;;;21.00;53.30;;;;;;20924839;28;20071;-54
2022/02/22 17:30:42;;;;;;;1.70;0.30;;;21.00;53.60;;;;;;20854048;28;20053;-53
2022/02/22 17:40:44;;;;;;;0.75;0.45;;;21.80;53.40;;;;;;20904921;27;20704;-52
2022/02/22 17:50:45;;;;;;;1.05;0.40;;;22.90;52.60;;;;;;20825538;28;20403;-53
2022/02/22 18:00:47;;;;;;;0.65;0.40;;;23.70;51.50;;;;;;20924276;27;20055;-52
2022/02/22 18:10:49;;;;;;;1.15;0.50;;;24.10;50.60;;;;;;21251769;27;20046;-53
2022/02/22 18:20:51;;;;;;;1.27;0.60;;;24.00;50.10;;;;;;21303720;27;20107;-59
2022/02/22 18:30:53;;;;;;;1.17;0.38;;;23.90;49.80;;;;;;21335104;27;20054;-53
2022/02/22 18:40:54;;;;;;;1.08;0.50;;;23.60;49.80;;;;;;21257487;27;20120;-53
2022/02/22 18:50:56;;;;;;;1.73;0.60;;;23.30;49.80;;;;;;21256148;27;20050;-50
2022/02/22 19:00:58;;;;;;;0.93;0.57;;;22.90;50.10;;;;;;21201193;27;20483;-52
2022/02/22 19:11:00;;;;;;;1.15;0.65;;;22.60;50.50;;;;;;20885403;28;20080;-52
2022/02/22 19:21:03;;;;;;;1.10;0.60;;;22.20;50.80;;;;;;20883042;28;20044;-53
2022/02/22 19:31:05;;;;;;;1.65;0.88;;;22.00;51.20;;;;;;20958336;22;20052;-63
2022/02/22 19:41:07;;;;;;;2.17;0.80;;;21.70;51.70;;;;;;20969368;28;20056;-63
2022/02/22 19:51:09;;;;;;;2.83;0.90;;;21.30;50.10;;;;;;20977639;28;20052;-62
2022/02/22 20:01:11;;;;;;;2.60;1.02;;;20.90;49.10;;;;;;20970363;28;20071;-62
2022/02/22 20:11:13;;;;;;;2.45;1.27;;;20.70;50.90;;;;;;20986883;28;20505;-62
2022/02/22 20:21:15;;;;;;;4.30;1.50;;;20.50;52.00;;;;;;20924803;28;20045;-60
2022/02/22 20:31:19;;;;;;;4.68;1.50;;;20.40;52.90;;;;;;20988675;28;20507;-62
2022/02/22 20:41:21;;;;;;;6.88;1.90;;;20.30;53.90;;;;;;20969563;28;20048;-59
2022/02/22 20:51:23;;;;;;;7.93;1.33;;;20.20;55.10;;;;;;20980737;28;20056;-61
2022/02/22 21:01:25;;;;;;;6.28;1.50;;;20.50;55.30;;;;;;20983729;28;20059;-61
2022/02/22 21:11:27;;;;;;;8.18;1.30;;;21.60;54.70;;;;;;20990762;28;20057;-62
2022/02/22 21:21:29;;;;;;;6.18;1.63;;;22.70;54.10;;;;;;20990329;28;20120;-61
2022/02/22 21:31:31;;;;;;;4.60;1.30;;;23.90;52.90;;;;;;20986281;28;20044;-60
2022/02/22 21:41:33;;;;;;;7.15;1.67;;;24.60;51.70;;;;;;20984938;28;20048;-59
2022/02/22 21:51:36;;;;;;;3.88;0.90;;;24.90;51.00;;;;;;21005364;28;20110;-60
2022/02/22 22:01:38;;;;;;;6.97;1.50;;;24.80;50.60;;;;;;21055088;28;20410;-63
2022/02/22 22:11:40;;;;;;;4.22;1.45;;;24.50;50.60;;;;;;21009771;28;20105;-62
2022/02/22 22:21:45;;;;;;;3.22;1.15;;;24.10;50.80;;;;;;20993046;28;20102;-61
2022/02/22 22:31:47;;;;;;;1.42;0.90;;;23.70;51.00;;;;;;20993960;28;20483;-61
2022/02/22 22:41:49;;;;;;;3.25;1.10;;;23.30;51.40;;;;;;21002522;28;20056;-61
2022/02/22 22:51:50;;;;;;;3.85;1.13;;;22.90;51.50;;;;;;20994280;28;20045;-62
2022/02/22 23:01:52;;;;;;;2.22;1.08;;;22.50;51.70;;;;;;20993123;28;20056;-62
2022/02/22 23:22:15;;;;;;;5.18;1.25;;;21.60;53.00;;;;;;20995763;28;20052;-60
2022/02/22 23:32:18;;;;;;;4.05;1.10;;;21.30;53.50;;;;;;20977978;28;20060;-61
2022/02/22 23:42:20;;;;;;;4.38;1.10;;;21.00;54.40;;;;;;20989176;28;20052;-60
2022/02/22 23:52:21;;;;;;;1.77;0.80;;;20.70;55.10;;;;;;20993595;28;20487;-63
